sensor_id;sensor_type;location;lat;lon;timestamp;P1;durP1;ratioP1;P2;durP2;ratioP2
21705;SDS011;11014;53.076;18.208;2022-08-03T00:00:37;6.30;;;4.03;;
21705;SDS011;11014;53.076;18.208;2022-08-03T00:03:06;6.43;;;3.97;;
21705;SDS011;11014;53.076;18.208;2022-08-03T00:05:35;7.00;;;3.60;;
21705;SDS011;11014;53.076;18.208;2022-08-03T00:08:04;5.78;;;3.95;;
21705;SDS011;11014;53.076;18.208;2022-08-03T00:10:33;4.45;;;3.58;;
21705;SDS011;11014;53.076;18.208;2022-08-03T00:13:01;4.95;;;3.35;;
21705;SDS011;11014;53.076;18.208;2022-08-03T00:15:30;4.40;;;3.80;;
21705;SDS011;11014;53.076;18.208;2022-08-03T00:17:58;5.38;;;3.67;;
21705;SDS011;11014;53.076;18.208;2022-08-03T00:20:27;8.80;;;4.00;;
21705;SDS011;11014;53.076;18.208;2022-08-03T00:22:55;4.55;;;3.85;;
21705;SDS011;11014;53.076;18.208;2022-08-03T00:25:24;5.22;;;3.83;;
21705;SDS011;11014;53.076;18.208;2022-08-03T00:27:53;5.57;;;3.83;;
21705;SDS011;11014;53.076;18.208;2022-08-03T00:30:22;8.80;;;3.92;;
21705;SDS011;11014;53.076;18.208;2022-08-03T00:32:56;8.10;;;3.70;;
21705;SDS011;11014;53.076;18.208;2022-08-03T00:35:26;4.93;;;3.85;;
21705;SDS011;11014;53.076;18.208;2022-08-03T00:38:15;6.07;;;4.05;;
21705;SDS011;11014;53.076;18.208;2022-08-03T00:40:44;6.30;;;3.90;;
21705;SDS011;11014;53.076;18.208;2022-08-03T00:43:12;5.75;;;3.85;;
21705;SDS011;11014;53.076;18.208;2022-08-03T00:45:41;5.20;;;3.97;;
21705;SDS011;11014;53.076;18.208;2022-08-03T00:48:11;9.73;;;4.25;;
21705;SDS011;11014;53.076;18.208;2022-08-03T00:51:00;6.25;;;3.90;;
21705;SDS011;11014;53.076;18.208;2022-08-03T00:53:28;4.80;;;3.50;;
21705;SDS011;11014;53.076;18.208;2022-08-03T00:55:57;5.50;;;3.40;;
21705;SDS011;11014;53.076;18.208;2022-08-03T00:58:25;6.75;;;4.10;;
21705;SDS011;11014;53.076;18.208;2022-08-03T01:00:54;5.60;;;3.63;;
21705;SDS011;11014;53.076;18.208;2022-08-03T01:03:22;4.13;;;3.70;;
21705;SDS011;11014;53.076;18.208;2022-08-03T01:05:53;4.88;;;4.03;;
21705;SDS011;11014;53.076;18.208;2022-08-03T01:08:30;5.00;;;3.90;;
21705;SDS011;11014;53.076;18.208;2022-08-03T01:13:45;5.68;;;3.95;;
21705;SDS011;11014;53.076;18.208;2022-08-03T01:16:50;10.77;;;4.97;;
21705;SDS011;11014;53.076;18.208;2022-08-03T01:30:32;5.28;;;4.22;;
21705;SDS011;11014;53.076;18.208;2022-08-03T01:33:04;5.80;;;4.10;;
21705;SDS011;11014;53.076;18.208;2022-08-03T01:35:47;5.47;;;4.28;;
21705;SDS011;11014;53.076;18.208;2022-08-03T01:38:23;6.68;;;4.15;;
21705;SDS011;11014;53.076;18.208;2022-08-03T01:40:55;4.53;;;3.67;;
21705;SDS011;11014;53.076;18.208;2022-08-03T01:43:24;5.30;;;4.15;;
21705;SDS011;11014;53.076;18.208;2022-08-03T01:46:16;6.88;;;4.35;;
21705;SDS011;11014;53.076;18.208;2022-08-03T01:48:47;5.70;;;4.20;;
21705;SDS011;11014;53.076;18.208;2022-08-03T01:51:18;6.55;;;4.10;;
21705;SDS011;11014;53.076;18.208;2022-08-03T01:53:48;6.70;;;4.20;;
21705;SDS011;11014;53.076;18.208;2022-08-03T01:56:19;7.38;;;4.28;;
21705;SDS011;11014;53.076;18.208;2022-08-03T01:58:50;6.33;;;4.70;;
21705;SDS011;11014;53.076;18.208;2022-08-03T02:01:21;7.05;;;4.88;;
21705;SDS011;11014;53.076;18.208;2022-08-03T02:04:12;5.57;;;4.47;;
21705;SDS011;11014;53.076;18.208;2022-08-03T02:06:44;6.22;;;4.60;;
21705;SDS011;11014;53.076;18.208;2022-08-03T02:09:29;6.05;;;4.40;;
21705;SDS011;11014;53.076;18.208;2022-08-03T02:11:59;5.50;;;4.55;;
21705;SDS011;11014;53.076;18.208;2022-08-03T02:14:28;5.53;;;4.18;;
21705;SDS011;11014;53.076;18.208;2022-08-03T02:16:57;7.65;;;4.20;;
21705;SDS011;11014;53.076;18.208;2022-08-03T02:19:27;7.97;;;4.32;;
21705;SDS011;11014;53.076;18.208;2022-08-03T02:22:03;6.65;;;4.20;;
21705;SDS011;11014;53.076;18.208;2022-08-03T02:24:32;5.50;;;4.03;;
21705;SDS011;11014;53.076;18.208;2022-08-03T02:27:00;5.45;;;4.03;;
21705;SDS011;11014;53.076;18.208;2022-08-03T02:29:35;7.18;;;4.75;;
21705;SDS011;11014;53.076;18.208;2022-08-03T02:32:08;7.00;;;4.65;;
21705;SDS011;11014;53.076;18.208;2022-08-03T02:34:42;6.20;;;4.65;;
21705;SDS011;11014;53.076;18.208;2022-08-03T02:37:17;6.53;;;4.50;;
21705;SDS011;11014;53.076;18.208;2022-08-03T02:42:16;6.65;;;4.35;;
21705;SDS011;11014;53.076;18.208;2022-08-03T02:44:49;6.05;;;4.57;;
21705;SDS011;11014;53.076;18.208;2022-08-03T02:47:22;7.47;;;4.60;;
21705;SDS011;11014;53.076;18.208;2022-08-03T02:49:54;7.22;;;4.60;;
21705;SDS011;11014;53.076;18.208;2022-08-03T02:54:56;9.25;;;4.60;;
21705;SDS011;11014;53.076;18.208;2022-08-03T02:59:57;4.88;;;3.92;;
21705;SDS011;11014;53.076;18.208;2022-08-03T03:02:28;6.40;;;4.40;;
21705;SDS011;11014;53.076;18.208;2022-08-03T03:04:57;9.50;;;4.20;;
21705;SDS011;11014;53.076;18.208;2022-08-03T03:07:48;6.43;;;4.13;;
21705;SDS011;11014;53.076;18.208;2022-08-03T03:10:22;8.07;;;5.05;;
21705;SDS011;11014;53.076;18.208;2022-08-03T03:12:54;6.10;;;4.40;;
21705;SDS011;11014;53.076;18.208;2022-08-03T03:15:25;6.38;;;4.63;;
21705;SDS011;11014;53.076;18.208;2022-08-03T03:17:54;8.27;;;4.80;;
21705;SDS011;11014;53.076;18.208;2022-08-03T03:20:24;5.72;;;4.35;;
21705;SDS011;11014;53.076;18.208;2022-08-03T03:22:57;6.82;;;4.20;;
21705;SDS011;11014;53.076;18.208;2022-08-03T03:25:31;7.80;;;4.47;;
21705;SDS011;11014;53.076;18.208;2022-08-03T03:28:00;7.65;;;4.40;;
21705;SDS011;11014;53.076;18.208;2022-08-03T03:30:33;7.85;;;4.45;;
21705;SDS011;11014;53.076;18.208;2022-08-03T03:33:01;6.75;;;5.00;;
21705;SDS011;11014;53.076;18.208;2022-08-03T03:35:30;9.90;;;5.60;;
21705;SDS011;11014;53.076;18.208;2022-08-03T03:38:06;10.55;;;4.68;;
21705;SDS011;11014;53.076;18.208;2022-08-03T03:40:35;8.27;;;4.82;;
21705;SDS011;11014;53.076;18.208;2022-08-03T03:43:07;6.50;;;4.72;;
21705;SDS011;11014;53.076;18.208;2022-08-03T03:45:37;8.77;;;4.63;;
21705;SDS011;11014;53.076;18.208;2022-08-03T03:48:07;6.28;;;4.35;;
21705;SDS011;11014;53.076;18.208;2022-08-03T03:50:36;8.10;;;4.47;;
21705;SDS011;11014;53.076;18.208;2022-08-03T03:53:08;7.03;;;4.30;;
21705;SDS011;11014;53.076;18.208;2022-08-03T03:55:38;8.65;;;4.32;;
21705;SDS011;11014;53.076;18.208;2022-08-03T03:58:27;6.15;;;4.53;;
21705;SDS011;11014;53.076;18.208;2022-08-03T04:00:56;7.18;;;4.70;;
21705;SDS011;11014;53.076;18.208;2022-08-03T04:03:25;7.78;;;4.85;;
21705;SDS011;11014;53.076;18.208;2022-08-03T04:05:54;7.68;;;4.72;;
21705;SDS011;11014;53.076;18.208;2022-08-03T04:08:40;7.55;;;4.57;;
21705;SDS011;11014;53.076;18.208;2022-08-03T04:11:29;7.20;;;4.53;;
21705;SDS011;11014;53.076;18.208;2022-08-03T04:14:08;9.15;;;4.82;;
21705;SDS011;11014;53.076;18.208;2022-08-03T04:16:47;7.10;;;4.07;;
21705;SDS011;11014;53.076;18.208;2022-08-03T04:19:29;7.22;;;4.43;;
21705;SDS011;11014;53.076;18.208;2022-08-03T04:22:05;7.72;;;4.32;;
21705;SDS011;11014;53.076;18.208;2022-08-03T04:24:40;6.65;;;4.63;;
21705;SDS011;11014;53.076;18.208;2022-08-03T04:27:14;6.70;;;4.65;;
21705;SDS011;11014;53.076;18.208;2022-08-03T04:29:46;9.23;;;4.32;;
21705;SDS011;11014;53.076;18.208;2022-08-03T04:32:18;6.13;;;4.28;;
21705;SDS011;11014;53.076;18.208;2022-08-03T04:34:50;6.55;;;3.95;;
21705;SDS011;11014;53.076;18.208;2022-08-03T04:37:53;11.82;;;4.75;;
21705;SDS011;11014;53.076;18.208;2022-08-03T04:40:24;7.70;;;4.30;;
21705;SDS011;11014;53.076;18.208;2022-08-03T04:42:57;5.93;;;4.40;;
21705;SDS011;11014;53.076;18.208;2022-08-03T04:45:27;7.03;;;4.53;;
21705;SDS011;11014;53.076;18.208;2022-08-03T04:47:57;6.78;;;4.80;;
21705;SDS011;11014;53.076;18.208;2022-08-03T04:50:29;7.97;;;4.40;;
21705;SDS011;11014;53.076;18.208;2022-08-03T04:53:04;7.70;;;4.93;;
21705;SDS011;11014;53.076;18.208;2022-08-03T04:55:34;6.35;;;4.50;;
21705;SDS011;11014;53.076;18.208;2022-08-03T04:58:03;6.35;;;4.25;;
21705;SDS011;11014;53.076;18.208;2022-08-03T05:00:33;5.95;;;4.38;;
21705;SDS011;11014;53.076;18.208;2022-08-03T05:03:01;6.15;;;4.32;;
21705;SDS011;11014;53.076;18.208;2022-08-03T05:05:46;7.78;;;4.47;;
21705;SDS011;11014;53.076;18.208;2022-08-03T05:08:17;5.95;;;4.13;;
21705;SDS011;11014;53.076;18.208;2022-08-03T05:10:55;5.80;;;4.28;;
21705;SDS011;11014;53.076;18.208;2022-08-03T05:13:26;6.45;;;4.85;;
21705;SDS011;11014;53.076;18.208;2022-08-03T05:15:54;5.80;;;4.55;;
21705;SDS011;11014;53.076;18.208;2022-08-03T05:18:23;4.70;;;4.07;;
21705;SDS011;11014;53.076;18.208;2022-08-03T05:20:51;6.93;;;4.20;;
21705;SDS011;11014;53.076;18.208;2022-08-03T05:23:20;6.78;;;4.40;;
21705;SDS011;11014;53.076;18.208;2022-08-03T05:25:48;6.97;;;4.00;;
21705;SDS011;11014;53.076;18.208;2022-08-03T05:28:17;6.00;;;4.28;;
21705;SDS011;11014;53.076;18.208;2022-08-03T05:30:45;5.13;;;3.92;;
21705;SDS011;11014;53.076;18.208;2022-08-03T05:33:14;5.35;;;4.03;;
21705;SDS011;11014;53.076;18.208;2022-08-03T05:35:42;5.40;;;3.88;;
21705;SDS011;11014;53.076;18.208;2022-08-03T05:38:31;6.35;;;4.25;;
21705;SDS011;11014;53.076;18.208;2022-08-03T05:43:51;5.03;;;3.78;;
21705;SDS011;11014;53.076;18.208;2022-08-03T05:46:21;6.22;;;4.18;;
21705;SDS011;11014;53.076;18.208;2022-08-03T05:48:50;6.47;;;4.30;;
21705;SDS011;11014;53.076;18.208;2022-08-03T05:51:19;5.78;;;4.30;;
21705;SDS011;11014;53.076;18.208;2022-08-03T05:53:47;5.30;;;4.22;;
21705;SDS011;11014;53.076;18.208;2022-08-03T05:56:16;5.63;;;4.30;;
21705;SDS011;11014;53.076;18.208;2022-08-03T05:58:45;5.95;;;4.10;;
21705;SDS011;11014;53.076;18.208;2022-08-03T06:01:15;8.70;;;4.13;;
21705;SDS011;11014;53.076;18.208;2022-08-03T06:03:44;6.90;;;4.13;;
21705;SDS011;11014;53.076;18.208;2022-08-03T06:06:13;8.85;;;4.30;;
21705;SDS011;11014;53.076;18.208;2022-08-03T06:08:42;7.05;;;4.20;;
21705;SDS011;11014;53.076;18.208;2022-08-03T06:11:12;5.13;;;3.75;;
21705;SDS011;11014;53.076;18.208;2022-08-03T06:13:40;5.80;;;4.03;;
21705;SDS011;11014;53.076;18.208;2022-08-03T06:16:09;5.32;;;4.30;;
21705;SDS011;11014;53.076;18.208;2022-08-03T06:18:38;6.32;;;4.35;;
21705;SDS011;11014;53.076;18.208;2022-08-03T06:21:07;8.00;;;4.30;;
21705;SDS011;11014;53.076;18.208;2022-08-03T06:23:43;5.65;;;4.30;;
21705;SDS011;11014;53.076;18.208;2022-08-03T06:26:25;5.95;;;3.90;;
21705;SDS011;11014;53.076;18.208;2022-08-03T06:28:55;5.35;;;4.13;;
21705;SDS011;11014;53.076;18.208;2022-08-03T06:31:24;8.20;;;4.40;;
21705;SDS011;11014;53.076;18.208;2022-08-03T06:34:01;6.93;;;3.90;;
21705;SDS011;11014;53.076;18.208;2022-08-03T06:36:50;6.07;;;3.88;;
21705;SDS011;11014;53.076;18.208;2022-08-03T06:39:20;5.18;;;4.00;;
21705;SDS011;11014;53.076;18.208;2022-08-03T06:41:51;5.32;;;3.83;;
21705;SDS011;11014;53.076;18.208;2022-08-03T06:44:20;5.75;;;4.30;;
21705;SDS011;11014;53.076;18.208;2022-08-03T06:46:48;6.95;;;4.13;;
21705;SDS011;11014;53.076;18.208;2022-08-03T06:49:21;4.82;;;3.75;;
21705;SDS011;11014;53.076;18.208;2022-08-03T06:51:49;6.50;;;4.05;;
21705;SDS011;11014;53.076;18.208;2022-08-03T06:54:33;6.22;;;4.47;;
21705;SDS011;11014;53.076;18.208;2022-08-03T06:57:02;6.05;;;4.22;;
21705;SDS011;11014;53.076;18.208;2022-08-03T06:59:31;6.43;;;3.78;;
21705;SDS011;11014;53.076;18.208;2022-08-03T07:02:20;5.18;;;3.78;;
21705;SDS011;11014;53.076;18.208;2022-08-03T07:04:49;5.00;;;4.00;;
21705;SDS011;11014;53.076;18.208;2022-08-03T07:07:17;6.32;;;3.90;;
21705;SDS011;11014;53.076;18.208;2022-08-03T07:09:47;5.18;;;3.80;;
21705;SDS011;11014;53.076;18.208;2022-08-03T07:12:23;5.50;;;4.22;;
21705;SDS011;11014;53.076;18.208;2022-08-03T07:14:53;7.13;;;4.25;;
21705;SDS011;11014;53.076;18.208;2022-08-03T07:17:28;5.93;;;4.20;;
21705;SDS011;11014;53.076;18.208;2022-08-03T07:19:58;5.50;;;4.25;;
21705;SDS011;11014;53.076;18.208;2022-08-03T07:22:27;5.50;;;4.25;;
21705;SDS011;11014;53.076;18.208;2022-08-03T07:24:56;5.05;;;4.18;;
21705;SDS011;11014;53.076;18.208;2022-08-03T07:27:25;5.38;;;4.00;;
21705;SDS011;11014;53.076;18.208;2022-08-03T07:29:56;5.80;;;4.10;;
21705;SDS011;11014;53.076;18.208;2022-08-03T07:32:26;6.53;;;4.00;;
21705;SDS011;11014;53.076;18.208;2022-08-03T07:34:57;4.35;;;3.70;;
21705;SDS011;11014;53.076;18.208;2022-08-03T07:37:28;6.78;;;4.28;;
21705;SDS011;11014;53.076;18.208;2022-08-03T07:39:58;4.25;;;3.63;;
21705;SDS011;11014;53.076;18.208;2022-08-03T07:42:28;6.60;;;3.90;;
21705;SDS011;11014;53.076;18.208;2022-08-03T07:44:57;6.85;;;4.00;;
21705;SDS011;11014;53.076;18.208;2022-08-03T07:47:28;4.68;;;3.90;;
21705;SDS011;11014;53.076;18.208;2022-08-03T07:50:04;4.82;;;3.80;;
21705;SDS011;11014;53.076;18.208;2022-08-03T07:52:35;4.80;;;3.92;;
21705;SDS011;11014;53.076;18.208;2022-08-03T08:00:27;5.93;;;3.50;;
21705;SDS011;11014;53.076;18.208;2022-08-03T08:02:56;3.80;;;3.40;;
21705;SDS011;11014;53.076;18.208;2022-08-03T08:05:24;6.32;;;3.92;;
21705;SDS011;11014;53.076;18.208;2022-08-03T08:07:53;4.63;;;3.67;;
21705;SDS011;11014;53.076;18.208;2022-08-03T08:10:21;6.97;;;3.83;;
21705;SDS011;11014;53.076;18.208;2022-08-03T08:12:49;4.90;;;3.78;;
21705;SDS011;11014;53.076;18.208;2022-08-03T08:15:18;5.35;;;4.15;;
21705;SDS011;11014;53.076;18.208;2022-08-03T08:17:51;4.20;;;3.80;;
21705;SDS011;11014;53.076;18.208;2022-08-03T08:20:26;4.18;;;3.58;;
21705;SDS011;11014;53.076;18.208;2022-08-03T08:23:00;5.72;;;4.03;;
21705;SDS011;11014;53.076;18.208;2022-08-03T08:25:30;4.10;;;3.65;;
21705;SDS011;11014;53.076;18.208;2022-08-03T08:27:59;4.57;;;3.58;;
21705;SDS011;11014;53.076;18.208;2022-08-03T08:30:49;4.70;;;3.90;;
21705;SDS011;11014;53.076;18.208;2022-08-03T08:33:18;6.35;;;3.60;;
21705;SDS011;11014;53.076;18.208;2022-08-03T08:35:51;5.15;;;3.75;;
21705;SDS011;11014;53.076;18.208;2022-08-03T08:38:20;5.78;;;3.65;;
21705;SDS011;11014;53.076;18.208;2022-08-03T08:40:49;5.30;;;3.90;;
21705;SDS011;11014;53.076;18.208;2022-08-03T08:43:18;4.43;;;3.63;;
21705;SDS011;11014;53.076;18.208;2022-08-03T08:45:48;4.60;;;3.60;;
21705;SDS011;11014;53.076;18.208;2022-08-03T08:48:19;4.75;;;3.67;;
21705;SDS011;11014;53.076;18.208;2022-08-03T08:50:52;5.20;;;3.70;;
21705;SDS011;11014;53.076;18.208;2022-08-03T08:53:25;5.17;;;4.03;;
21705;SDS011;11014;53.076;18.208;2022-08-03T08:55:57;4.25;;;3.85;;
21705;SDS011;11014;53.076;18.208;2022-08-03T08:58:29;5.38;;;3.80;;
21705;SDS011;11014;53.076;18.208;2022-08-03T09:01:03;4.10;;;3.70;;
21705;SDS011;11014;53.076;18.208;2022-08-03T09:03:32;5.80;;;3.83;;
21705;SDS011;11014;53.076;18.208;2022-08-03T09:06:01;4.55;;;3.63;;
21705;SDS011;11014;53.076;18.208;2022-08-03T09:08:31;5.38;;;3.75;;
21705;SDS011;11014;53.076;18.208;2022-08-03T09:11:00;4.60;;;3.28;;
21705;SDS011;11014;53.076;18.208;2022-08-03T09:13:28;4.65;;;3.95;;
21705;SDS011;11014;53.076;18.208;2022-08-03T09:18:46;6.40;;;3.90;;
21705;SDS011;11014;53.076;18.208;2022-08-03T09:21:24;4.45;;;3.83;;
21705;SDS011;11014;53.076;18.208;2022-08-03T09:24:00;4.45;;;3.70;;
21705;SDS011;11014;53.076;18.208;2022-08-03T09:26:33;4.68;;;4.00;;
21705;SDS011;11014;53.076;18.208;2022-08-03T09:29:04;4.47;;;3.92;;
21705;SDS011;11014;53.076;18.208;2022-08-03T09:31:42;5.40;;;4.13;;
21705;SDS011;11014;53.076;18.208;2022-08-03T09:34:14;4.27;;;3.60;;
21705;SDS011;11014;53.076;18.208;2022-08-03T09:36:48;6.43;;;3.80;;
21705;SDS011;11014;53.076;18.208;2022-08-03T09:39:19;5.07;;;3.35;;
21705;SDS011;11014;53.076;18.208;2022-08-03T09:42:13;6.68;;;3.78;;
21705;SDS011;11014;53.076;18.208;2022-08-03T09:44:50;5.32;;;3.75;;
21705;SDS011;11014;53.076;18.208;2022-08-03T09:50:14;4.50;;;3.63;;
21705;SDS011;11014;53.076;18.208;2022-08-03T09:52:43;4.93;;;3.80;;
21705;SDS011;11014;53.076;18.208;2022-08-03T09:55:19;4.80;;;4.30;;
21705;SDS011;11014;53.076;18.208;2022-08-03T09:58:08;4.53;;;3.88;;
21705;SDS011;11014;53.076;18.208;2022-08-03T10:03:56;6.18;;;3.75;;
21705;SDS011;11014;53.076;18.208;2022-08-03T10:06:31;5.43;;;3.97;;
21705;SDS011;11014;53.076;18.208;2022-08-03T10:09:13;6.25;;;4.00;;
21705;SDS011;11014;53.076;18.208;2022-08-03T10:11:43;4.07;;;3.60;;
21705;SDS011;11014;53.076;18.208;2022-08-03T10:14:14;5.10;;;3.93;;
21705;SDS011;11014;53.076;18.208;2022-08-03T10:16:50;4.70;;;4.00;;
21705;SDS011;11014;53.076;18.208;2022-08-03T10:19:18;3.97;;;3.58;;
21705;SDS011;11014;53.076;18.208;2022-08-03T10:21:49;4.53;;;3.95;;
21705;SDS011;11014;53.076;18.208;2022-08-03T10:24:25;4.38;;;3.47;;
21705;SDS011;11014;53.076;18.208;2022-08-03T10:26:59;4.35;;;3.70;;
21705;SDS011;11014;53.076;18.208;2022-08-03T10:29:34;4.80;;;3.53;;
21705;SDS011;11014;53.076;18.208;2022-08-03T10:32:21;5.35;;;3.83;;
21705;SDS011;11014;53.076;18.208;2022-08-03T10:35:03;4.38;;;3.80;;
21705;SDS011;11014;53.076;18.208;2022-08-03T10:37:51;4.53;;;4.00;;
21705;SDS011;11014;53.076;18.208;2022-08-03T10:40:26;4.18;;;3.65;;
21705;SDS011;11014;53.076;18.208;2022-08-03T10:43:17;4.18;;;3.42;;
21705;SDS011;11014;53.076;18.208;2022-08-03T10:45:47;4.72;;;3.70;;
21705;SDS011;11014;53.076;18.208;2022-08-03T10:48:17;4.13;;;3.65;;
21705;SDS011;11014;53.076;18.208;2022-08-03T10:50:47;4.85;;;3.63;;
21705;SDS011;11014;53.076;18.208;2022-08-03T10:53:22;3.97;;;3.53;;
21705;SDS011;11014;53.076;18.208;2022-08-03T10:56:03;4.82;;;3.70;;
21705;SDS011;11014;53.076;18.208;2022-08-03T10:59:12;5.15;;;3.90;;
21705;SDS011;11014;53.076;18.208;2022-08-03T11:01:55;4.53;;;3.70;;
21705;SDS011;11014;53.076;18.208;2022-08-03T11:04:27;5.15;;;3.60;;
21705;SDS011;11014;53.076;18.208;2022-08-03T11:07:40;5.30;;;3.78;;
21705;SDS011;11014;53.076;18.208;2022-08-03T11:09:54;3.95;;;3.55;;
21705;SDS011;11014;53.076;18.208;2022-08-03T11:12:30;6.43;;;3.88;;
21705;SDS011;11014;53.076;18.208;2022-08-03T11:15:02;4.00;;;3.58;;
21705;SDS011;11014;53.076;18.208;2022-08-03T11:17:35;3.85;;;3.45;;
21705;SDS011;11014;53.076;18.208;2022-08-03T11:23:11;3.88;;;3.42;;
21705;SDS011;11014;53.076;18.208;2022-08-03T11:28:42;4.03;;;3.55;;
21705;SDS011;11014;53.076;18.208;2022-08-03T11:34:10;3.90;;;3.50;;
21705;SDS011;11014;53.076;18.208;2022-08-03T11:39:52;4.13;;;3.70;;
21705;SDS011;11014;53.076;18.208;2022-08-03T11:44:50;4.40;;;3.47;;
21705;SDS011;11014;53.076;18.208;2022-08-03T11:47:20;3.88;;;3.47;;
21705;SDS011;11014;53.076;18.208;2022-08-03T11:49:53;3.97;;;3.55;;
21705;SDS011;11014;53.076;18.208;2022-08-03T11:52:26;3.78;;;3.30;;
21705;SDS011;11014;53.076;18.208;2022-08-03T11:55:01;3.92;;;3.47;;
21705;SDS011;11014;53.076;18.208;2022-08-03T11:57:30;4.70;;;3.55;;
21705;SDS011;11014;53.076;18.208;2022-08-03T12:02:56;3.53;;;3.20;;
21705;SDS011;11014;53.076;18.208;2022-08-03T12:05:36;4.97;;;3.83;;
21705;SDS011;11014;53.076;18.208;2022-08-03T12:08:07;3.75;;;3.45;;
21705;SDS011;11014;53.076;18.208;2022-08-03T12:10:38;4.35;;;3.30;;
21705;SDS011;11014;53.076;18.208;2022-08-03T12:13:13;3.42;;;3.13;;
21705;SDS011;11014;53.076;18.208;2022-08-03T12:16:02;4.13;;;3.72;;
21705;SDS011;11014;53.076;18.208;2022-08-03T12:18:31;3.63;;;3.33;;
21705;SDS011;11014;53.076;18.208;2022-08-03T12:21:04;4.20;;;3.40;;
21705;SDS011;11014;53.076;18.208;2022-08-03T12:23:35;4.22;;;3.40;;
21705;SDS011;11014;53.076;18.208;2022-08-03T12:26:05;3.70;;;3.15;;
21705;SDS011;11014;53.076;18.208;2022-08-03T12:28:36;4.13;;;3.72;;
21705;SDS011;11014;53.076;18.208;2022-08-03T12:31:06;3.50;;;3.20;;
21705;SDS011;11014;53.076;18.208;2022-08-03T12:33:55;4.82;;;3.70;;
21705;SDS011;11014;53.076;18.208;2022-08-03T12:36:31;3.40;;;3.10;;
21705;SDS011;11014;53.076;18.208;2022-08-03T12:39:02;3.63;;;3.33;;
21705;SDS011;11014;53.076;18.208;2022-08-03T12:41:36;3.65;;;3.22;;
21705;SDS011;11014;53.076;18.208;2022-08-03T12:44:08;3.83;;;3.25;;
21705;SDS011;11014;53.076;18.208;2022-08-03T12:46:38;4.40;;;3.63;;
21705;SDS011;11014;53.076;18.208;2022-08-03T12:49:14;4.03;;;3.63;;
21705;SDS011;11014;53.076;18.208;2022-08-03T12:54:21;3.85;;;3.45;;
21705;SDS011;11014;53.076;18.208;2022-08-03T12:56:58;5.00;;;3.55;;
21705;SDS011;11014;53.076;18.208;2022-08-03T12:59:39;3.92;;;3.40;;
21705;SDS011;11014;53.076;18.208;2022-08-03T13:02:21;3.75;;;3.40;;
21705;SDS011;11014;53.076;18.208;2022-08-03T13:04:51;4.45;;;3.60;;
21705;SDS011;11014;53.076;18.208;2022-08-03T13:07:21;3.97;;;3.50;;
21705;SDS011;11014;53.076;18.208;2022-08-03T13:09:51;3.55;;;3.25;;
21705;SDS011;11014;53.076;18.208;2022-08-03T13:12:22;4.23;;;3.87;;
21705;SDS011;11014;53.076;18.208;2022-08-03T13:14:55;4.32;;;3.20;;
21705;SDS011;11014;53.076;18.208;2022-08-03T13:17:27;3.50;;;3.20;;
21705;SDS011;11014;53.076;18.208;2022-08-03T13:19:56;3.80;;;3.50;;
21705;SDS011;11014;53.076;18.208;2022-08-03T13:22:25;4.50;;;3.95;;
21705;SDS011;11014;53.076;18.208;2022-08-03T13:24:56;3.80;;;3.30;;
21705;SDS011;11014;53.076;18.208;2022-08-03T13:27:24;3.70;;;3.40;;
21705;SDS011;11014;53.076;18.208;2022-08-03T13:30:13;3.95;;;3.53;;
21705;SDS011;11014;53.076;18.208;2022-08-03T13:32:57;4.00;;;3.60;;
21705;SDS011;11014;53.076;18.208;2022-08-03T13:35:27;5.47;;;3.83;;
21705;SDS011;11014;53.076;18.208;2022-08-03T13:37:55;6.28;;;4.07;;
21705;SDS011;11014;53.076;18.208;2022-08-03T13:40:24;4.07;;;3.67;;
21705;SDS011;11014;53.076;18.208;2022-08-03T13:42:57;4.13;;;3.28;;
21705;SDS011;11014;53.076;18.208;2022-08-03T13:45:25;6.68;;;3.60;;
21705;SDS011;11014;53.076;18.208;2022-08-03T13:47:54;4.30;;;3.72;;
21705;SDS011;11014;53.076;18.208;2022-08-03T13:50:26;4.20;;;3.80;;
21705;SDS011;11014;53.076;18.208;2022-08-03T13:52:55;4.05;;;3.53;;
21705;SDS011;11014;53.076;18.208;2022-08-03T13:55:24;3.97;;;3.58;;
21705;SDS011;11014;53.076;18.208;2022-08-03T13:57:52;5.68;;;3.33;;
21705;SDS011;11014;53.076;18.208;2022-08-03T14:00:32;4.32;;;3.60;;
21705;SDS011;11014;53.076;18.208;2022-08-03T14:03:01;4.97;;;3.60;;
21705;SDS011;11014;53.076;18.208;2022-08-03T14:05:40;4.20;;;3.47;;
21705;SDS011;11014;53.076;18.208;2022-08-03T14:08:09;4.05;;;3.40;;
21705;SDS011;11014;53.076;18.208;2022-08-03T14:10:41;3.78;;;3.47;;
21705;SDS011;11014;53.076;18.208;2022-08-03T14:13:11;4.53;;;3.47;;
21705;SDS011;11014;53.076;18.208;2022-08-03T14:15:45;5.03;;;3.60;;
21705;SDS011;11014;53.076;18.208;2022-08-03T14:18:18;5.55;;;3.58;;
21705;SDS011;11014;53.076;18.208;2022-08-03T14:20:56;3.97;;;3.58;;
21705;SDS011;11014;53.076;18.208;2022-08-03T14:23:33;4.63;;;3.47;;
21705;SDS011;11014;53.076;18.208;2022-08-03T14:26:07;4.03;;;3.25;;
21705;SDS011;11014;53.076;18.208;2022-08-03T14:28:37;4.93;;;3.72;;
21705;SDS011;11014;53.076;18.208;2022-08-03T14:31:05;3.70;;;3.33;;
21705;SDS011;11014;53.076;18.208;2022-08-03T14:33:42;3.78;;;3.15;;
21705;SDS011;11014;53.076;18.208;2022-08-03T14:36:11;3.75;;;3.35;;
21705;SDS011;11014;53.076;18.208;2022-08-03T14:38:39;3.72;;;3.22;;
21705;SDS011;11014;53.076;18.208;2022-08-03T14:41:07;4.18;;;3.30;;
21705;SDS011;11014;53.076;18.208;2022-08-03T14:43:46;3.90;;;3.50;;
21705;SDS011;11014;53.076;18.208;2022-08-03T14:46:29;4.18;;;3.72;;
21705;SDS011;11014;53.076;18.208;2022-08-03T14:48:59;4.03;;;3.33;;
21705;SDS011;11014;53.076;18.208;2022-08-03T14:51:47;3.90;;;3.50;;
21705;SDS011;11014;53.076;18.208;2022-08-03T14:54:21;4.25;;;3.63;;
21705;SDS011;11014;53.076;18.208;2022-08-03T14:56:50;4.00;;;3.70;;
21705;SDS011;11014;53.076;18.208;2022-08-03T14:59:18;3.90;;;3.50;;
21705;SDS011;11014;53.076;18.208;2022-08-03T15:01:47;4.22;;;3.60;;
21705;SDS011;11014;53.076;18.208;2022-08-03T15:04:33;3.47;;;3.17;;
21705;SDS011;11014;53.076;18.208;2022-08-03T15:07:01;4.80;;;3.58;;
21705;SDS011;11014;53.076;18.208;2022-08-03T15:09:30;4.95;;;3.40;;
21705;SDS011;11014;53.076;18.208;2022-08-03T15:11:59;3.65;;;3.13;;
21705;SDS011;11014;53.076;18.208;2022-08-03T15:14:27;5.28;;;3.40;;
21705;SDS011;11014;53.076;18.208;2022-08-03T15:17:01;4.00;;;3.60;;
21705;SDS011;11014;53.076;18.208;2022-08-03T15:19:30;4.43;;;3.50;;
21705;SDS011;11014;53.076;18.208;2022-08-03T15:22:18;3.92;;;3.53;;
21705;SDS011;11014;53.076;18.208;2022-08-03T15:25:02;3.72;;;3.38;;
21705;SDS011;11014;53.076;18.208;2022-08-03T15:27:51;4.07;;;3.65;;
21705;SDS011;11014;53.076;18.208;2022-08-03T15:30:31;4.95;;;3.38;;
21705;SDS011;11014;53.076;18.208;2022-08-03T15:33:03;4.03;;;3.30;;
21705;SDS011;11014;53.076;18.208;2022-08-03T15:35:31;3.60;;;3.30;;
21705;SDS011;11014;53.076;18.208;2022-08-03T15:38:00;4.03;;;3.60;;
21705;SDS011;11014;53.076;18.208;2022-08-03T15:40:34;5.95;;;3.38;;
21705;SDS011;11014;53.076;18.208;2022-08-03T15:43:02;4.70;;;3.78;;
21705;SDS011;11014;53.076;18.208;2022-08-03T15:45:31;4.05;;;3.72;;
21705;SDS011;11014;53.076;18.208;2022-08-03T15:48:04;3.67;;;3.38;;
21705;SDS011;11014;53.076;18.208;2022-08-03T15:50:32;4.95;;;3.22;;
21705;SDS011;11014;53.076;18.208;2022-08-03T15:53:01;4.05;;;3.17;;
21705;SDS011;11014;53.076;18.208;2022-08-03T15:55:29;3.35;;;3.08;;
21705;SDS011;11014;53.076;18.208;2022-08-03T15:57:58;4.05;;;3.55;;
21705;SDS011;11014;53.076;18.208;2022-08-03T16:00:47;3.55;;;3.25;;
21705;SDS011;11014;53.076;18.208;2022-08-03T16:03:15;3.58;;;3.25;;
21705;SDS011;11014;53.076;18.208;2022-08-03T16:05:43;3.53;;;3.17;;